Terminal Aerodrome Forecast
Issued by NWS

Home | Current Version | Previous Version | Text Only | Print | Product List | Glossary Off
Versions: 1 2 3 4 5 6 7 8 9 10 11 12 13 14 15 16 17

000
FTUS43 KTOP 281132
TAFMHK
TAF
KMHK 281132Z 2812/2912 18007KT P6SM FEW250
     FM281500 20013G20KT P6SM SCT060 BKN200
     FM282300 21008KT P6SM VCTS SCT050CB
     FM290100 32006KT P6SM VCTS BKN050CB
      TEMPO 2901/2905 5SM -TSRA BKN040CB
     FM290900 03008KT P6SM SCT025 BKN040=

USA.gov is the U.S. government's official web portal to all federal, state and local government web resources and services.